Салка

Карта отелей и гостиниц, располагающихся рядом с аэропортом Салка :

Салка
Нижний Тагил
Свердловская область 57° 59' 18.06" N, 60° 14' 4.2" E
Код аэродрома ИКАО
XSSN
Код аэродрома RU
ЬССН
Координаты
N57.98835° E060.23450°
Превышение над уровнем моря
274
Основная полоса
08/26
Курс магнитный
081,6/261,6
Длина основной ВПП
2500
Ширина основной ВПП
40
Покрытие основной ВПП
Твёрдое (бетон)
Освещение ВПП
Нет
Тип: 
Аэродром
Класс аэродрома: 
Принадлежность: 
ЭА
Статус: 
Действующий
Сайт: 
E-mail аэродрома: 
Страна: 
Россия
Регион: 
Свердловская область
Город: 
Нижний Тагил
Дополнительная информация: 
Экспериментальный (испытательный) аэродром федерального казенного предприятия «Нижнетагильский институт испытания металлов» (ФКП «НТИИМ»). Бывший военный аэродром класса "В". В н. в. способен принимать ВС Ил-76, Ту-134, Ту-204, Як-42, Ан-12, вертолеты всех типов. Нкр.=(600)м, грузонапряженность ВПП до 100 т.


Найти трансфер

С помощью этой формы Вы можете найти трансфер из аэропорта Салка в город, аэропорт или вокзал:

Погода в аэропортах:

Авиационная погода в Минске

Регион: 
Погода METAR: 
UMMS 212300Z 26002MPS 240V310 6000 -RA BKN003 OVC016 09/09 Q0998 NOSIG RMK QBB110
Время наблюдения
2022-05-21T23:00:00Z
Температура C
9.0
Точка росы
9.0
Направление ветра
260
Скорость ветра (узлы)
4
Метео видимость
3.73
Облачность
BKN
OVC
Нижняя граница облачности (футы)
300
1600
Явления погоды
-RA
Условия полета
LIFR
Аэропорт подробнее: 
BKN – значительная (рассеянная, разорванная) облачность; OVC – сплошная облачность;
-RA - слабый дождь;

Авиационная погода в Платове

Регион: 
Погода METAR: 
URRP 212300Z 26010MPS 9999 -SHRA SCT///CB 14/10 Q1005 R23/CLRD70 TEMPO VRB17G22MPS 3000 -TSRAGR SCT003 SCT020CB RMK QFE746/0995
Время наблюдения
2022-05-21T23:00:00Z
Температура C
14.0
Точка росы
10.0
Направление ветра
260
Скорость ветра (узлы)
19
Метео видимость
6.21
Облачность
Нижняя граница облачности (футы)
Явления погоды
-SHRA
Условия полета
Аэропорт подробнее: 
-SHRA - слабый ливневой дождь;

Авиационная погода в Белгороде

Регион: 
Погода METAR: 
UUOB 212300Z 03001MPS 3000 -SHRA BR OVC010CB 13/12 Q0997 R11/290060 NOSIG
Время наблюдения
2022-05-21T23:00:00Z
Температура C
13.0
Точка росы
12.0
Направление ветра
30
Скорость ветра (узлы)
2
Метео видимость
1.86
Облачность
OVC
Нижняя граница облачности (футы)
1000
Явления погоды
-SHRA BR
Условия полета
IFR
Аэропорт подробнее: 
OVC – сплошная облачность;
-SHRA - слабый ливневой дождь; BR – дымка (видимость от 1 до 9 км);

Авиационная погода в Брянске

Регион: 
Погода METAR: 
UUBP 212300Z AUTO 05003MPS 5000 -RA 09/09 Q0999 RMK QFE732/0976
Время наблюдения
2022-05-21T23:00:00Z
Температура C
9.0
Точка росы
9.0
Направление ветра
50
Скорость ветра (узлы)
6
Метео видимость
3.11
Облачность
Нижняя граница облачности (футы)
Явления погоды
-RA
Условия полета
Аэропорт подробнее: 
-RA - слабый дождь;